Time;durP1;ratioP1;P1;durP2;ratioP2;P2;SDS_P1;SDS_P2;PMS_P1;PMS_P2;Temp;Humidity;BMP_temperature;BMP_pressure;BME280_temperature;BME280_humidity;BME280_pressure;Samples;Min_cycle;Max_cycle;Signal;HPM_P1;HPM_P2
2021/12/05 00:17:10;;;;;;;5.13;1.70;;;;;;;3.49;100.00;96907.06;5139757;27;20245;-64
2021/12/05 00:19:55;;;;;;;3.90;1.93;;;;;;;3.45;100.00;96916.03;5138601;27;20214;-64
2021/12/05 00:22:27;;;;;;;9.60;2.10;;;;;;;3.45;100.00;96915.19;5138806;27;20272;-64
2021/12/05 00:24:57;;;;;;;7.03;1.83;;;;;;;3.55;100.00;96904.09;5142282;27;20263;-64
2021/12/05 00:27:28;;;;;;;4.37;2.03;;;;;;;3.62;100.00;96910.59;5140023;27;20307;-64
2021/12/05 00:30:03;;;;;;;4.57;1.60;;;;;;;3.58;100.00;96919.59;5140030;27;20218;-64
2021/12/05 00:32:42;;;;;;;6.60;1.70;;;;;;;3.60;100.00;96914.28;5141449;27;20209;-64
2021/12/05 00:35:45;;;;;;;6.73;2.03;;;;;;;3.69;100.00;96913.69;5136488;27;20683;-64
2021/12/05 00:41:36;;;;;;;5.50;1.63;;;;;;;3.81;100.00;96919.03;5135260;27;20622;-64
2021/12/05 00:47:08;;;;;;;4.40;1.70;;;;;;;3.85;100.00;96923.09;5139477;27;20220;-64
2021/12/05 00:53:02;;;;;;;3.77;1.97;;;;;;;3.77;100.00;96917.53;5142008;27;20263;-64
2021/12/05 00:55:43;;;;;;;4.73;1.63;;;;;;;3.73;100.00;96921.25;5131582;27;20219;-64
2021/12/05 01:01:23;;;;;;;4.23;1.67;;;;;;;3.73;100.00;96939.53;5137524;27;20724;-64
2021/12/05 01:04:29;;;;;;;4.00;1.53;;;;;;;3.72;100.00;96924.78;5139231;27;20290;-63
2021/12/05 01:07:34;;;;;;;4.93;1.60;;;;;;;3.61;100.00;96929.84;5138726;27;20235;-64
2021/12/05 01:10:12;;;;;;;4.90;1.50;;;;;;;3.55;100.00;96932.81;5141753;27;20211;-64
2021/12/05 01:15:23;;;;;;;2.70;1.40;;;;;;;3.34;100.00;96923.66;5136696;27;20210;-64
2021/12/05 01:18:00;;;;;;;3.23;1.43;;;;;;;3.41;100.00;96922.38;5141137;27;20600;-64
2021/12/05 01:20:29;;;;;;;2.70;1.20;;;;;;;3.47;100.00;96923.75;5135134;27;20213;-64
2021/12/05 01:23:03;;;;;;;4.00;1.40;;;;;;;3.57;100.00;96928.34;5138603;27;20217;-64
2021/12/05 01:25:40;;;;;;;3.00;1.30;;;;;;;3.58;100.00;96927.41;5139432;27;20206;-64
2021/12/05 01:28:14;;;;;;;4.17;1.47;;;;;;;3.61;100.00;96935.06;5138833;27;20213;-64
2021/12/05 01:30:47;;;;;;;6.43;1.53;;;;;;;3.62;100.00;96939.34;5129167;27;20209;-64
2021/12/05 01:33:20;;;;;;;2.63;2.17;;;;;;;3.65;100.00;96944.41;5138310;27;20219;-64
2021/12/05 01:36:01;;;;;;;2.77;1.43;;;;;;;3.72;100.00;96945.69;5136018;27;20734;-64
2021/12/05 01:38:46;;;;;;;4.90;1.70;;;;;;;3.71;100.00;96944.03;5128709;27;20226;-64
2021/12/05 01:50:08;;;;;;;4.60;1.50;;;;;;;3.83;100.00;96958.97;5078691;28;20212;-63
2021/12/05 01:53:04;;;;;;;3.40;1.33;;;;;;;3.83;100.00;96955.50;5070384;28;20642;-63
2021/12/05 01:58:26;;;;;;;3.20;1.43;;;;;;;3.79;100.00;96947.00;5060594;28;20211;-63
2021/12/05 02:01:12;;;;;;;2.10;1.40;;;;;;;3.77;100.00;96953.25;5072010;28;20220;-63
2021/12/05 02:09:28;;;;;;;4.67;1.47;;;;;;;3.35;100.00;96941.00;5071369;28;20317;-62
2021/12/05 02:12:08;;;;;;;4.43;1.53;;;;;;;3.52;100.00;96938.25;5069123;28;20564;-63
2021/12/05 02:31:42;;;;;;;5.07;1.50;;;;;;;3.09;100.00;96920.84;5017365;28;20245;-63
2021/12/05 02:34:20;;;;;;;6.37;1.67;;;;;;;3.20;100.00;96926.28;5057155;28;20718;-63
2021/12/05 02:39:43;;;;;;;1.63;1.10;;;;;;;3.41;100.00;96911.06;5062839;28;20672;-63
2021/12/05 02:42:14;;;;;;;1.30;1.10;;;;;;;3.46;100.00;96927.31;5082596;28;20278;-63
2021/12/05 02:44:43;;;;;;;3.00;1.30;;;;;;;3.50;100.00;96927.06;5079403;28;20582;-63
2021/12/05 02:47:14;;;;;;;2.53;1.50;;;;;;;3.56;100.00;96929.25;5081838;28;20220;-63
2021/12/05 02:49:43;;;;;;;2.73;1.20;;;;;;;3.60;100.00;96925.53;5083047;28;20293;-62
2021/12/05 02:52:20;;;;;;;1.93;1.40;;;;;;;3.59;100.00;96926.47;5080982;28;20227;-62
2021/12/05 02:54:52;;;;;;;3.73;1.30;;;;;;;3.65;100.00;96922.66;5067502;28;20216;-63
2021/12/05 02:57:31;;;;;;;3.23;1.50;;;;;;;3.74;100.00;96912.47;5069447;28;20281;-63
2021/12/05 02:59:59;;;;;;;1.97;1.20;;;;;;;3.80;100.00;96914.72;5066215;28;20690;-63
2021/12/05 03:02:37;;;;;;;1.83;1.30;;;;;;;3.77;100.00;96907.06;5065146;28;20241;-63
2021/12/05 03:05:08;;;;;;;2.17;1.50;;;;;;;3.83;100.00;96909.31;5051145;28;20312;-62
2021/12/05 03:07:39;;;;;;;2.90;1.10;;;;;;;3.86;100.00;96911.72;5069356;28;20244;-63
2021/12/05 03:10:07;;;;;;;3.43;1.43;;;;;;;3.88;100.00;96906.41;5065569;28;20666;-63
2021/12/05 03:12:35;;;;;;;4.23;1.23;;;;;;;3.87;100.00;96905.56;5066996;28;20222;-63
2021/12/05 03:15:05;;;;;;;2.53;1.37;;;;;;;3.90;100.00;96908.00;5069218;28;20226;-62
2021/12/05 03:17:32;;;;;;;1.83;1.20;;;;;;;3.93;100.00;96909.56;5068947;28;20578;-63
2021/12/05 03:19:58;;;;;;;4.07;1.33;;;;;;;3.97;100.00;96913.69;5065054;28;20220;-63
2021/12/05 03:22:26;;;;;;;3.00;1.20;;;;;;;3.86;100.00;96909.09;5066669;28;20236;-63
2021/12/05 03:24:54;;;;;;;4.00;1.20;;;;;;;3.89;100.00;96908.94;5069055;28;20212;-63
2021/12/05 03:27:20;;;;;;;1.43;1.10;;;;;;;3.90;100.00;96901.91;5067338;28;20219;-64
2021/12/05 03:29:47;;;;;;;2.97;1.33;;;;;;;3.90;100.00;96896.69;5062242;28;20224;-63
2021/12/05 03:32:13;;;;;;;2.57;1.53;;;;;;;3.86;100.00;96885.56;5066482;28;20301;-63
2021/12/05 03:34:40;;;;;;;1.80;1.40;;;;;;;3.67;100.00;96897.28;5068726;28;20219;-63
2021/12/05 03:37:08;;;;;;;4.40;1.30;;;;;;;3.55;100.00;96890.19;5068485;28;20212;-63
2021/12/05 03:39:34;;;;;;;4.90;1.40;;;;;;;3.55;100.00;96892.81;5065477;28;20212;-63
2021/12/05 03:42:04;;;;;;;2.60;1.50;;;;;;;3.58;100.00;96890.84;5065969;28;20250;-63
2021/12/05 03:44:33;;;;;;;3.70;1.40;;;;;;;3.60;100.00;96888.97;5068109;28;20673;-63
2021/12/05 03:47:01;;;;;;;3.10;1.47;;;;;;;3.64;100.00;96880.03;5061392;28;20212;-63
2021/12/05 03:49:28;;;;;;;3.07;1.40;;;;;;;3.59;100.00;96878.63;5064556;28;20212;-63
2021/12/05 03:52:00;;;;;;;3.57;1.40;;;;;;;3.47;100.00;96880.22;5064754;28;20642;-63
2021/12/05 03:54:26;;;;;;;4.33;1.60;;;;;;;3.43;100.00;96883.94;5068532;28;20218;-63
2021/12/05 03:56:54;;;;;;;3.20;1.23;;;;;;;3.40;100.00;96886.75;5068165;28;20223;-63
2021/12/05 03:59:22;;;;;;;4.00;1.40;;;;;;;3.48;100.00;96879.28;5064247;28;20209;-65
2021/12/05 04:01:49;;;;;;;2.63;1.17;;;;;;;3.55;100.00;96877.97;5066320;28;20604;-63
2021/12/05 04:04:17;;;;;;;2.60;1.20;;;;;;;3.47;100.00;96888.06;5066755;28;20764;-63
2021/12/05 04:06:44;;;;;;;2.03;1.30;;;;;;;3.34;100.00;96884.50;5063091;28;20730;-63
2021/12/05 04:09:12;;;;;;;1.77;1.20;;;;;;;3.36;100.00;96885.25;5064147;28;20220;-63
2021/12/05 04:11:45;;;;;;;2.47;1.40;;;;;;;3.37;100.00;96881.69;5066880;28;20223;-63
2021/12/05 04:14:14;;;;;;;1.63;1.07;;;;;;;3.39;100.00;96874.63;5067664;28;20692;-63
2021/12/05 04:16:43;;;;;;;3.00;1.23;;;;;;;3.41;100.00;96880.59;5066198;28;20216;-63
2021/12/05 04:19:10;;;;;;;3.23;1.60;;;;;;;3.31;100.00;96879.44;5062575;28;20584;-63
2021/12/05 04:21:38;;;;;;;4.00;1.50;;;;;;;3.19;100.00;96890.63;5067374;28;20214;-63
2021/12/05 04:24:07;;;;;;;3.87;1.30;;;;;;;3.25;100.00;96892.88;5067923;28;20236;-63
2021/12/05 04:26:34;;;;;;;1.90;1.30;;;;;;;3.24;100.00;96895.59;5066244;28;20231;-63
2021/12/05 04:29:01;;;;;;;2.60;1.50;;;;;;;3.23;100.00;96897.34;5063755;28;20223;-63
2021/12/05 04:31:27;;;;;;;2.00;1.10;;;;;;;3.29;100.00;96910.03;5066985;28;20216;-63
2021/12/05 04:33:55;;;;;;;2.83;1.33;;;;;;;3.37;100.00;96902.59;5067273;28;20207;-63
2021/12/05 04:36:22;;;;;;;3.40;1.40;;;;;;;3.45;100.00;96910.81;5065914;28;20235;-63
2021/12/05 04:38:49;;;;;;;2.17;1.40;;;;;;;3.50;100.00;96903.56;5063547;28;20221;-63
2021/12/05 04:41:16;;;;;;;2.77;1.40;;;;;;;3.47;100.00;96908.94;5066596;28;20226;-63
2021/12/05 04:43:44;;;;;;;2.73;1.50;;;;;;;3.42;100.00;96905.75;5067452;28;20597;-63
2021/12/05 04:46:13;;;;;;;3.30;2.10;;;;;;;3.41;100.00;96904.09;5064266;28;20753;-63
2021/12/05 04:48:40;;;;;;;1.87;1.50;;;;;;;3.46;100.00;96899.44;5063318;28;20228;-63
2021/12/05 04:51:09;;;;;;;2.27;1.60;;;;;;;3.39;100.00;96898.13;5066851;28;20224;-63
2021/12/05 04:53:36;;;;;;;2.83;1.20;;;;;;;3.29;100.00;96910.03;5067012;28;20219;-63
2021/12/05 04:56:03;;;;;;;1.53;1.10;;;;;;;3.14;100.00;96907.50;5065492;28;20209;-63
2021/12/05 04:58:30;;;;;;;4.40;1.23;;;;;;;2.96;100.00;96912.06;5063130;28;20217;-63
2021/12/05 05:00:59;;;;;;;4.10;1.60;;;;;;;2.83;100.00;96905.88;5066749;28;20208;-63
2021/12/05 05:03:26;;;;;;;3.90;1.60;;;;;;;2.68;100.00;96906.75;5061798;28;20706;-63
2021/12/05 05:06:01;;;;;;;3.63;1.53;;;;;;;2.64;100.00;96910.44;5065317;28;20575;-64
2021/12/05 05:08:31;;;;;;;5.63;1.50;;;;;;;2.50;100.00;96902.56;5060387;28;20238;-63
2021/12/05 05:10:57;;;;;;;2.10;1.90;;;;;;;2.43;100.00;96901.25;5065453;28;20435;-63
2021/12/05 05:13:25;;;;;;;1.80;1.37;;;;;;;2.29;100.00;96895.97;5066726;28;20223;-63
2021/12/05 05:15:52;;;;;;;7.20;1.63;;;;;;;2.20;100.00;96899.09;5064041;28;20226;-63
2021/12/05 05:18:18;;;;;;;2.43;1.43;;;;;;;2.19;100.00;96905.22;5063562;28;20216;-62
2021/12/05 05:20:51;;;;;;;2.73;1.43;;;;;;;2.16;100.00;96897.59;5066962;28;20583;-63
2021/12/05 05:23:38;;;;;;;1.53;1.17;;;;;;;1.98;100.00;96908.19;5066540;28;20235;-63
2021/12/05 05:29:09;;;;;;;3.87;1.60;;;;;;;2.01;100.00;96910.59;5051568;28;20215;-62
2021/12/05 05:40:16;;;;;;;2.23;1.30;;;;;;;1.92;100.00;96905.91;5061200;28;20735;-63
2021/12/05 05:45:56;;;;;;;2.87;1.50;;;;;;;1.99;100.00;96908.09;5062793;28;20350;-63
2021/12/05 05:51:17;;;;;;;1.77;1.40;;;;;;;2.10;100.00;96913.56;5027369;28;20366;-63
2021/12/05 05:53:47;;;;;;;2.93;1.27;;;;;;;2.16;100.00;96913.22;5063619;28;20212;-63
2021/12/05 05:56:18;;;;;;;2.30;1.10;;;;;;;2.21;100.00;96905.97;5066314;28;20747;-63
2021/12/05 05:58:49;;;;;;;2.53;1.53;;;;;;;2.26;100.00;96908.34;5066608;28;20269;-63
2021/12/05 06:01:41;;;;;;;2.43;1.20;;;;;;;2.34;100.00;96917.38;5060400;28;20228;-63
2021/12/05 06:04:08;;;;;;;1.97;1.13;;;;;;;2.43;100.00;96919.50;5047451;28;20734;-63
2021/12/05 06:06:35;;;;;;;1.20;1.10;;;;;;;2.46;100.00;96916.69;5062036;28;20256;-63
2021/12/05 06:09:03;;;;;;;2.33;1.20;;;;;;;2.44;100.00;96923.78;5063187;28;20219;-63
2021/12/05 06:11:30;;;;;;;3.97;1.47;;;;;;;2.54;100.00;96924.97;5063927;28;20223;-63
2021/12/05 06:13:58;;;;;;;2.73;1.37;;;;;;;2.62;100.00;96914.91;5066139;28;20216;-63
2021/12/05 06:16:24;;;;;;;1.20;1.10;;;;;;;2.67;100.00;96918.09;5063954;28;20253;-63
2021/12/05 06:18:51;;;;;;;3.33;1.20;;;;;;;2.66;100.00;96918.19;5062561;28;20216;-65
2021/12/05 06:21:18;;;;;;;3.27;1.30;;;;;;;2.65;100.00;96916.50;5063399;28;20223;-63
2021/12/05 06:23:45;;;;;;;2.73;1.50;;;;;;;2.65;100.00;96914.75;5066154;28;20231;-63
2021/12/05 06:26:19;;;;;;;2.37;1.30;;;;;;;2.52;100.00;96920.75;5066192;28;20211;-63
2021/12/05 06:28:55;;;;;;;2.63;1.23;;;;;;;2.45;100.00;96917.63;5059965;28;20217;-63
2021/12/05 06:31:25;;;;;;;3.37;1.20;;;;;;;2.30;100.00;96910.69;5066595;28;20331;-63
2021/12/05 06:39:43;;;;;;;2.17;1.10;;;;;;;1.81;100.00;96916.06;5020117;28;20228;-63
2021/12/05 06:42:33;;;;;;;2.83;1.27;;;;;;;1.74;100.00;96914.72;5019794;28;20643;-63
2021/12/05 06:47:47;;;;;;;2.67;1.40;;;;;;;1.55;100.00;96917.47;5069428;28;20222;-62
2021/12/05 06:50:13;;;;;;;3.03;1.30;;;;;;;1.51;100.00;96925.50;5066907;28;20666;-63
2021/12/05 06:52:40;;;;;;;3.23;1.40;;;;;;;1.46;100.00;96910.13;5065821;28;20216;-63
2021/12/05 06:55:07;;;;;;;3.63;1.70;;;;;;;1.43;100.00;96919.88;5069291;28;20212;-63
2021/12/05 06:57:34;;;;;;;2.87;1.30;;;;;;;1.37;100.00;96925.41;5068664;28;20238;-62
2021/12/05 07:00:03;;;;;;;2.80;1.33;;;;;;;1.32;100.00;96930.84;5067389;28;20212;-63
2021/12/05 07:02:31;;;;;;;2.80;1.43;;;;;;;1.26;100.00;96933.78;5062598;28;20216;-63
2021/12/05 07:05:32;;;;;;;3.87;1.30;;;;;;;1.30;100.00;96935.28;5069241;28;20235;-63
2021/12/05 07:07:58;;;;;;;2.00;1.30;;;;;;;1.18;100.00;96929.88;5066053;28;20670;-63
2021/12/05 07:10:25;;;;;;;2.40;1.47;;;;;;;1.21;100.00;96933.16;5065879;28;20254;-63
2021/12/05 07:13:41;;;;;;;1.90;1.10;;;;;;;1.20;100.00;96941.88;5069241;28;20215;-63
2021/12/05 07:16:15;;;;;;;3.93;1.53;;;;;;;1.20;100.00;96939.28;5063809;28;20247;-63
2021/12/05 07:18:55;;;;;;;5.17;1.50;;;;;;;1.16;100.00;96937.75;5049804;28;20294;-63
2021/12/05 07:21:36;;;;;;;3.10;1.10;;;;;;;1.29;100.00;96944.00;5067872;28;20235;-63
2021/12/05 07:24:06;;;;;;;2.33;1.30;;;;;;;1.35;100.00;96943.69;5064249;28;20244;-63
2021/12/05 07:26:48;;;;;;;2.27;1.50;;;;;;;1.51;100.00;96944.59;5049206;28;20294;-63
2021/12/05 07:40:25;;;;;;;2.60;1.40;;;;;;;1.53;100.00;96934.09;5049476;28;20293;-63
2021/12/05 07:42:52;;;;;;;2.97;1.37;;;;;;;1.51;100.00;96936.78;5068863;28;20343;-63
2021/12/05 07:45:23;;;;;;;1.87;1.50;;;;;;;1.52;100.00;96940.19;5065847;28;20246;-63
2021/12/05 07:47:51;;;;;;;3.53;1.63;;;;;;;1.47;100.00;96940.44;5061049;28;20238;-63
2021/12/05 07:50:24;;;;;;;3.43;1.40;;;;;;;1.48;100.00;96944.72;5068632;28;20294;-63
2021/12/05 07:52:54;;;;;;;3.90;1.10;;;;;;;1.49;100.00;96946.44;5068604;28;20216;-63
2021/12/05 07:55:26;;;;;;;2.83;1.60;;;;;;;1.56;100.00;96960.81;5066901;28;20225;-63
2021/12/05 07:58:07;;;;;;;2.50;1.30;;;;;;;1.68;100.00;96960.16;5067318;28;20304;-63
2021/12/05 08:00:41;;;;;;;4.23;1.67;;;;;;;1.82;100.00;96965.47;5068032;28;20219;-63
2021/12/05 08:14:30;;;;;;;3.30;1.70;;;;;;;2.60;100.00;96950.69;5006020;28;20222;-63
2021/12/05 08:16:57;;;;;;;2.80;1.30;;;;;;;2.55;100.00;96952.72;5061882;28;20825;-64
2021/12/05 08:19:24;;;;;;;2.10;1.30;;;;;;;2.40;100.00;96953.53;5065967;28;20220;-63
2021/12/05 08:21:55;;;;;;;2.90;1.20;;;;;;;2.36;100.00;96957.28;5067917;28;20216;-62
2021/12/05 08:24:24;;;;;;;3.70;1.40;;;;;;;2.29;100.00;96948.13;5070292;28;20249;-63
2021/12/05 08:26:51;;;;;;;1.83;1.20;;;;;;;2.27;100.00;96946.50;5064049;28;20579;-63
2021/12/05 08:29:25;;;;;;;3.67;1.53;;;;;;;2.26;100.00;96944.84;5066289;28;20568;-63
2021/12/05 08:32:17;;;;;;;4.20;1.37;;;;;;;2.28;100.00;96943.81;5067801;28;20564;-63
2021/12/05 08:34:59;;;;;;;2.40;1.30;;;;;;;2.31;100.00;96938.44;5061728;28;20221;-63
2021/12/05 08:37:52;;;;;;;2.50;1.53;;;;;;;2.28;100.00;96949.00;5049420;28;20252;-63
2021/12/05 08:40:45;;;;;;;2.43;1.30;;;;;;;2.34;100.00;96948.66;5063119;28;20238;-63
2021/12/05 08:43:44;;;;;;;4.67;1.17;;;;;;;2.39;100.00;96954.47;5067031;28;20243;-63
2021/12/05 09:08:21;;;;;;;1.90;1.20;;;;;;;2.60;100.00;96955.91;5065140;28;20230;-64
2021/12/05 09:20:30;;;;;;;3.07;1.10;;;;;;;3.65;100.00;96949.63;5052202;28;20235;-63
2021/12/05 09:23:08;;;;;;;2.87;1.20;;;;;;;4.03;100.00;96960.34;5051413;28;20307;-63
2021/12/05 09:31:19;;;;;;;2.03;1.27;;;;;;;4.55;100.00;96969.22;5038564;28;20217;-63
2021/12/05 10:06:57;;;;;;;3.07;1.30;;;;;;;5.10;100.00;96960.31;5047880;28;20292;-63
2021/12/05 10:12:46;;;;;;;1.77;1.10;;;;;;;4.85;100.00;96947.16;5143118;27;20314;-64
2021/12/05 10:15:29;;;;;;;2.83;1.43;;;;;;;4.75;100.00;96942.59;5128153;28;20294;-63
2021/12/05 10:27:13;;;;;;;2.40;1.10;;;;;;;5.34;100.00;96929.00;5126427;28;20211;-64
2021/12/05 10:35:38;;;;;;;1.53;0.80;;;;;;;6.15;100.00;96926.78;5127652;28;20219;-64
2021/12/05 10:38:08;;;;;;;1.87;1.00;;;;;;;6.35;98.01;96933.25;5130493;28;20262;-65
2021/12/05 10:40:41;;;;;;;0.90;0.90;;;;;;;6.53;97.13;96927.50;5128008;28;20299;-65
2021/12/05 10:43:13;;;;;;;0.90;0.80;;;;;;;6.66;96.14;96925.66;5127693;28;20283;-65
2021/12/05 10:45:44;;;;;;;1.07;0.60;;;;;;;6.85;94.84;96915.50;5130547;28;20227;-65
2021/12/05 10:48:19;;;;;;;1.33;0.83;;;;;;;6.95;92.07;96920.94;5127517;28;20581;-64
2021/12/05 10:50:49;;;;;;;1.73;0.83;;;;;;;6.92;89.30;96915.91;5129263;28;20233;-65
2021/12/05 10:53:26;;;;;;;1.00;0.80;;;;;;;6.79;87.61;96926.44;5127611;28;20221;-65
2021/12/05 10:55:59;;;;;;;1.20;0.87;;;;;;;6.81;89.23;96919.31;5127732;28;20213;-65
2021/12/05 10:58:33;;;;;;;1.30;0.70;;;;;;;6.79;90.29;96921.19;5130231;28;20214;-65
2021/12/05 11:01:18;;;;;;;2.07;0.70;;;;;;;6.64;91.11;96917.06;5125200;28;20233;-65
2021/12/05 11:03:46;;;;;;;0.77;0.70;;;;;;;6.50;92.61;96917.25;5130121;28;20217;-64
2021/12/05 11:06:23;;;;;;;1.83;0.90;;;;;;;6.19;92.20;96909.03;5126975;28;20696;-64
2021/12/05 11:08:54;;;;;;;1.57;0.90;;;;;;;6.10;92.83;96909.72;5124643;28;20206;-65
2021/12/05 11:11:20;;;;;;;1.00;0.80;;;;;;;5.92;93.71;96906.59;5129679;28;20248;-65
2021/12/05 11:13:47;;;;;;;1.37;0.83;;;;;;;5.87;94.23;96913.94;5130112;28;20583;-65
2021/12/05 11:16:39;;;;;;;1.37;0.70;;;;;;;5.81;95.80;96901.25;5129418;28;20217;-65
2021/12/05 11:19:12;;;;;;;2.90;0.90;;;;;;;5.77;95.87;96891.91;5113156;28;20253;-65
2021/12/05 11:21:46;;;;;;;2.40;0.80;;;;;;;5.91;93.35;96890.94;5125480;28;20216;-64
2021/12/05 11:24:17;;;;;;;1.20;0.80;;;;;;;6.01;93.39;96874.47;5112369;28;20307;-65
2021/12/05 11:27:01;;;;;;;0.77;0.77;;;;;;;6.14;93.78;96879.69;5112487;28;20592;-65
2021/12/05 11:29:40;;;;;;;1.03;0.80;;;;;;;6.35;90.38;96884.22;5113447;28;20206;-65
2021/12/05 11:32:11;;;;;;;1.30;0.70;;;;;;;6.72;91.06;96877.97;5111399;28;20240;-65
2021/12/05 11:34:37;;;;;;;2.07;0.63;;;;;;;6.99;90.33;96875.94;5112568;28;20592;-65
2021/12/05 11:37:05;;;;;;;1.87;0.90;;;;;;;7.10;86.41;96886.47;5113308;28;20216;-65
2021/12/05 11:39:32;;;;;;;0.60;0.60;;;;;;;6.94;84.15;96885.94;5113004;28;20213;-65
2021/12/05 11:41:58;;;;;;;1.20;0.80;;;;;;;6.91;82.54;96891.41;5111147;28;20225;-65
2021/12/05 11:44:26;;;;;;;1.63;1.00;;;;;;;6.92;82.57;96895.72;5111115;28;20229;-65
2021/12/05 11:46:53;;;;;;;1.40;1.00;;;;;;;6.95;84.36;96884.16;5112143;28;20209;-65
2021/12/05 11:49:23;;;;;;;0.80;0.70;;;;;;;6.92;85.61;96889.63;5112772;28;20687;-65
2021/12/05 11:51:52;;;;;;;1.97;1.10;;;;;;;6.79;85.81;96889.69;5110488;28;20238;-65
2021/12/05 11:54:22;;;;;;;2.50;0.93;;;;;;;6.71;87.22;96883.34;5112461;28;20594;-65
2021/12/05 11:56:52;;;;;;;1.40;0.90;;;;;;;6.43;87.84;96881.91;5111482;28;20701;-65
2021/12/05 11:59:24;;;;;;;1.10;0.80;;;;;;;6.19;89.44;96882.81;5112254;28;20210;-65
2021/12/05 12:02:02;;;;;;;2.93;1.17;;;;;;;6.02;90.74;96891.03;5109556;28;20213;-65
2021/12/05 12:04:49;;;;;;;1.20;1.00;;;;;;;6.13;91.77;96893.75;5112399;28;20301;-65
2021/12/05 12:07:21;;;;;;;0.73;0.73;;;;;;;6.42;90.54;96895.94;5112391;28;20213;-65
2021/12/05 12:09:53;;;;;;;0.80;0.70;;;;;;;6.55;88.47;96896.75;5112958;28;20213;-65
2021/12/05 12:12:20;;;;;;;1.17;0.73;;;;;;;6.69;87.95;96883.44;5113258;28;20240;-65
2021/12/05 12:14:47;;;;;;;1.70;0.80;;;;;;;6.62;85.95;96891.88;5114916;28;20213;-65
2021/12/05 12:17:16;;;;;;;1.00;0.80;;;;;;;6.65;86.10;96889.06;5114916;28;20216;-65
2021/12/05 12:19:46;;;;;;;1.37;0.80;;;;;;;6.57;87.46;96883.50;5115423;28;20561;-65
2021/12/05 12:22:14;;;;;;;0.90;0.80;;;;;;;6.48;88.44;96889.44;5115264;28;20209;-65
2021/12/05 12:24:41;;;;;;;0.70;0.70;;;;;;;6.43;88.54;96891.56;5114858;28;20217;-65
2021/12/05 12:27:08;;;;;;;0.87;0.83;;;;;;;6.42;88.78;96890.69;5114510;28;20217;-65
2021/12/05 12:29:36;;;;;;;2.30;0.93;;;;;;;6.31;89.11;96893.28;5114578;28;20222;-65
2021/12/05 12:32:11;;;;;;;0.77;0.70;;;;;;;6.27;89.62;96886.56;5114754;28;20237;-65
2021/12/05 12:34:38;;;;;;;2.20;0.70;;;;;;;6.22;89.73;96883.44;5113545;28;20286;-65
2021/12/05 12:37:06;;;;;;;0.93;0.70;;;;;;;6.18;89.11;96881.97;5112866;28;20214;-65
2021/12/05 12:39:36;;;;;;;1.10;0.80;;;;;;;6.09;88.99;96887.03;5114537;28;20314;-65
2021/12/05 12:42:19;;;;;;;0.80;0.67;;;;;;;5.92;89.59;96885.59;5114603;28;20327;-65
2021/12/05 12:45:13;;;;;;;0.90;0.63;;;;;;;5.76;91.91;96889.38;5114397;28;20217;-65
2021/12/05 12:47:41;;;;;;;0.87;0.80;;;;;;;5.65;92.98;96876.19;5100166;28;20594;-65
2021/12/05 12:50:23;;;;;;;1.57;1.07;;;;;;;5.47;93.04;96882.69;5111968;28;20220;-65
2021/12/05 12:53:00;;;;;;;0.80;0.77;;;;;;;5.45;93.76;96885.41;5109313;28;20248;-65
2021/12/05 12:55:29;;;;;;;1.87;0.97;;;;;;;5.38;93.88;96888.56;5112531;28;20215;-65
2021/12/05 12:57:56;;;;;;;0.83;0.70;;;;;;;5.35;96.03;96894.00;5107814;28;20217;-64
2021/12/05 13:00:25;;;;;;;1.67;0.70;;;;;;;5.32;96.27;96889.00;5108958;28;20216;-65
2021/12/05 13:02:58;;;;;;;0.87;0.73;;;;;;;5.26;95.76;96884.16;5100928;28;20228;-65
2021/12/05 13:05:42;;;;;;;1.13;0.90;;;;;;;5.23;95.29;96885.22;5101596;28;20292;-65
2021/12/05 13:11:01;;;;;;;1.20;0.70;;;;;;;5.37;93.83;96882.47;5113401;28;20606;-62
2021/12/05 13:13:29;;;;;;;0.70;0.70;;;;;;;5.51;93.79;96879.75;5113732;28;20217;-63
2021/12/05 13:16:00;;;;;;;1.87;0.77;;;;;;;5.61;94.93;96885.22;5113817;28;20311;-63
2021/12/05 13:18:30;;;;;;;1.77;0.70;;;;;;;5.57;95.31;96889.81;5113085;28;20216;-63
2021/12/05 13:21:04;;;;;;;0.77;0.63;;;;;;;5.69;94.97;96886.34;5100274;28;20239;-63
2021/12/05 13:23:39;;;;;;;0.60;0.60;;;;;;;5.81;93.69;96888.13;5113979;28;20208;-63
2021/12/05 13:26:26;;;;;;;0.80;0.80;;;;;;;5.98;93.32;96897.47;5112487;28;20216;-63
2021/12/05 13:28:56;;;;;;;0.63;0.60;;;;;;;6.11;92.42;96896.47;5100482;28;20209;-63
2021/12/05 13:31:48;;;;;;;1.37;0.87;;;;;;;6.13;91.82;96894.59;5112054;28;20237;-62
2021/12/05 13:34:31;;;;;;;2.57;1.57;;;;;;;5.93;92.68;96908.25;5112752;28;20217;-64
2021/12/05 13:37:18;;;;;;;1.47;1.37;;;;;;;5.76;93.70;96910.34;5112885;28;20227;-66
2021/12/05 13:39:48;;;;;;;2.10;1.30;;;;;;;5.74;94.30;96920.94;5113579;28;20213;-65
2021/12/05 13:42:18;;;;;;;3.60;1.40;;;;;;;5.72;95.47;96925.47;5111987;28;20216;-65
2021/12/05 13:45:06;;;;;;;1.63;1.10;;;;;;;5.66;93.30;96930.28;5113019;28;20220;-65
2021/12/05 13:47:35;;;;;;;1.50;0.90;;;;;;;5.45;94.59;96927.31;5112464;28;20413;-65
2021/12/05 13:50:27;;;;;;;0.97;0.90;;;;;;;5.14;98.88;96927.72;5112435;28;20268;-65
2021/12/05 13:52:56;;;;;;;1.37;0.80;;;;;;;4.97;99.79;96930.63;5113526;28;20244;-65
2021/12/05 13:55:39;;;;;;;0.90;0.90;;;;;;;5.07;100.00;96942.16;5112638;28;20212;-65
2021/12/05 13:58:22;;;;;;;1.77;1.00;;;;;;;5.04;100.00;96931.06;5096200;28;20572;-65
2021/12/05 14:00:53;;;;;;;1.20;1.00;;;;;;;4.99;100.00;96935.75;5096237;28;20212;-65
2021/12/05 14:03:40;;;;;;;1.40;1.27;;;;;;;4.93;100.00;96939.63;5096211;28;20276;-66
2021/12/05 14:06:28;;;;;;;1.47;1.30;;;;;;;4.89;100.00;96929.47;5106289;28;20209;-65
2021/12/05 14:08:59;;;;;;;1.27;1.17;;;;;;;4.84;100.00;96940.22;5113243;28;20211;-65
2021/12/05 14:11:28;;;;;;;2.07;1.70;;;;;;;4.76;100.00;96942.50;5113060;28;20248;-64
2021/12/05 14:13:55;;;;;;;3.13;1.70;;;;;;;4.66;100.00;96948.44;5110307;28;20227;-63
2021/12/05 14:16:30;;;;;;;3.53;1.53;;;;;;;4.66;100.00;96951.91;5110602;28;20208;-63
2021/12/05 14:18:57;;;;;;;2.67;1.47;;;;;;;4.48;100.00;96949.59;5110529;28;20219;-63
2021/12/05 14:21:26;;;;;;;1.90;1.50;;;;;;;4.41;100.00;96941.31;5107548;28;20216;-63
2021/12/05 14:23:55;;;;;;;1.90;1.40;;;;;;;4.34;100.00;96955.72;5108647;28;20219;-65
2021/12/05 14:26:25;;;;;;;2.47;1.43;;;;;;;4.32;100.00;96954.97;5110411;28;20245;-64
2021/12/05 14:28:58;;;;;;;1.97;1.43;;;;;;;4.41;100.00;96957.00;5110103;28;20242;-64
2021/12/05 14:31:25;;;;;;;3.20;1.57;;;;;;;4.53;100.00;96955.41;5110797;28;20210;-63
2021/12/05 14:33:54;;;;;;;1.20;1.10;;;;;;;4.49;100.00;96952.13;5113060;28;20216;-64
2021/12/05 14:36:23;;;;;;;1.70;1.50;;;;;;;4.49;100.00;96953.91;5112796;28;20212;-65
2021/12/05 14:39:08;;;;;;;1.50;1.40;;;;;;;4.42;100.00;96963.06;5112748;28;20222;-64
2021/12/05 14:41:35;;;;;;;1.53;1.27;;;;;;;4.37;100.00;96958.16;5097271;28;20219;-63
2021/12/05 14:44:04;;;;;;;2.90;1.10;;;;;;;4.22;100.00;96956.47;5110131;28;20211;-63
2021/12/05 14:46:31;;;;;;;2.27;1.60;;;;;;;4.15;100.00;96959.59;5110175;28;20873;-64
2021/12/05 14:48:59;;;;;;;3.57;1.60;;;;;;;4.03;100.00;96963.78;5105368;28;20697;-64
2021/12/05 14:51:33;;;;;;;2.30;1.50;;;;;;;3.99;100.00;96970.16;5110109;28;20212;-64
2021/12/05 14:54:00;;;;;;;1.20;1.10;;;;;;;4.02;100.00;96974.34;5110262;28;20214;-65
2021/12/05 14:56:32;;;;;;;1.10;1.00;;;;;;;4.05;100.00;96980.25;5110216;28;20563;-64
2021/12/05 14:59:06;;;;;;;1.10;1.00;;;;;;;4.11;100.00;96985.09;5111540;28;20216;-64
2021/12/05 15:01:32;;;;;;;1.23;1.00;;;;;;;4.20;100.00;96984.50;5114019;28;20215;-64
2021/12/05 15:04:01;;;;;;;0.87;0.83;;;;;;;4.28;100.00;96991.88;5113941;28;20216;-64
2021/12/05 15:06:35;;;;;;;1.50;1.03;;;;;;;4.35;100.00;96999.22;5113598;28;20234;-64
2021/12/05 15:09:05;;;;;;;1.10;0.90;;;;;;;4.41;100.00;96987.56;5116525;28;20214;-64
2021/12/05 15:11:32;;;;;;;1.27;1.00;;;;;;;4.37;100.00;96997.38;5116546;28;20243;-63
2021/12/05 15:14:09;;;;;;;1.50;0.97;;;;;;;4.23;100.00;97000.00;5115341;28;20214;-63
2021/12/05 15:16:35;;;;;;;1.03;1.00;;;;;;;4.03;100.00;97008.22;5114004;28;20215;-64
2021/12/05 15:19:02;;;;;;;1.30;1.00;;;;;;;3.89;100.00;97008.25;5116325;28;20226;-64
2021/12/05 15:21:42;;;;;;;2.20;1.03;;;;;;;3.88;100.00;97013.56;5116337;28;20213;-64
2021/12/05 15:24:13;;;;;;;3.57;1.47;;;;;;;3.94;100.00;97019.25;5116099;28;20350;-63
2021/12/05 15:26:40;;;;;;;38.37;23.33;;;;;;;4.00;100.00;97018.88;5115915;28;20219;-63
2021/12/05 15:29:06;;;;;;;8.67;6.53;;;;;;;3.98;100.00;97020.72;5113703;28;20210;-64
2021/12/05 15:31:36;;;;;;;3.70;3.30;;;;;;;3.98;100.00;97020.72;5113494;28;20211;-64